Time;durP1;ratioP1;P1;durP2;ratioP2;P2;SDS_P1;SDS_P2;PMS_P1;PMS_P2;Temp;Humidity;BMP_temperature;BMP_pressure;BME280_temperature;BME280_humidity;BME280_pressure;Samples;Min_cycle;Max_cycle;Signal;HPM_P1;HPM_P2
2022/11/30 00:00:48;;;;;;;7.05;6.55;;;;;;;;;;5114315;27;20379;-88
2022/11/30 00:03:14;;;;;;;7.25;6.65;;;;;;;;;;5130156;27;20445;-87
2022/11/30 00:05:40;;;;;;;7.13;6.57;;;;;;;;;;5134232;27;20899;-87
2022/11/30 00:08:06;;;;;;;7.15;6.65;;;;;;;;;;5136216;27;20386;-86
2022/11/30 00:10:32;;;;;;;20.38;14.85;;;;;;;;;;5117486;27;20478;-87
2022/11/30 00:12:58;;;;;;;7.13;6.63;;;;;;;;;;5136082;27;20383;-86
2022/11/30 00:15:24;;;;;;;7.45;6.95;;;;;;;;;;5136141;27;20382;-87
2022/11/30 00:17:55;;;;;;;8.00;7.35;;;;;;;;;;5135968;27;20375;-87
2022/11/30 00:20:21;;;;;;;7.75;7.15;;;;;;;;;;5136447;27;20474;-86
2022/11/30 00:22:47;;;;;;;6.90;6.32;;;;;;;;;;5138704;27;20788;-87
2022/11/30 00:25:13;;;;;;;6.60;6.10;;;;;;;;;;5136292;27;20383;-86
2022/11/30 00:27:39;;;;;;;7.10;6.60;;;;;;;;;;5136272;27;20374;-86
2022/11/30 00:30:05;;;;;;;7.20;6.70;;;;;;;;;;5136093;27;20460;-87
2022/11/30 00:32:31;;;;;;;7.15;6.65;;;;;;;;;;5136039;27;20470;-86
2022/11/30 00:34:57;;;;;;;6.20;5.80;;;;;;;;;;5136184;27;20410;-86
2022/11/30 00:37:23;;;;;;;6.47;5.97;;;;;;;;;;5136340;27;20493;-87
2022/11/30 00:39:49;;;;;;;5.70;5.30;;;;;;;;;;5136066;27;20410;-87
2022/11/30 00:42:15;;;;;;;6.03;5.63;;;;;;;;;;5135456;27;20855;-86
2022/11/30 00:44:41;;;;;;;6.22;5.75;;;;;;;;;;5135470;27;20374;-87
2022/11/30 00:47:07;;;;;;;5.78;5.38;;;;;;;;;;5135500;27;20387;-86
2022/11/30 00:49:35;;;;;;;6.07;5.68;;;;;;;;;;5128932;27;20438;-86
2022/11/30 00:52:01;;;;;;;5.78;5.38;;;;;;;;;;5135481;27;20367;-86
2022/11/30 00:54:27;;;;;;;6.13;5.72;;;;;;;;;;5135284;27;20874;-87
2022/11/30 00:56:53;;;;;;;6.85;6.35;;;;;;;;;;5135586;27;20419;-86
2022/11/30 00:59:19;;;;;;;6.18;5.68;;;;;;;;;;5135318;27;20425;-86
2022/11/30 01:01:45;;;;;;;6.70;6.20;;;;;;;;;;5132525;27;20852;-87
2022/11/30 01:04:11;;;;;;;6.10;5.70;;;;;;;;;;5126577;27;20460;-87
2022/11/30 01:06:37;;;;;;;6.43;5.93;;;;;;;;;;5135676;27;20383;-87
2022/11/30 01:09:03;;;;;;;6.40;5.90;;;;;;;;;;5135471;27;20382;-86
2022/11/30 01:11:30;;;;;;;6.40;5.90;;;;;;;;;;5134885;27;20457;-86
2022/11/30 01:13:57;;;;;;;6.47;5.97;;;;;;;;;;5134362;27;20839;-87
2022/11/30 01:16:25;;;;;;;6.10;5.57;;;;;;;;;;5134975;27;20374;-86
2022/11/30 01:18:51;;;;;;;6.43;5.93;;;;;;;;;;5134989;27;20875;-86
2022/11/30 01:21:22;;;;;;;6.65;6.15;;;;;;;;;;5135035;27;20379;-87
2022/11/30 01:23:48;;;;;;;6.45;6.05;;;;;;;;;;5135137;27;20395;-87
2022/11/30 01:26:14;;;;;;;6.20;5.70;;;;;;;;;;5135030;27;20863;-87
2022/11/30 01:28:40;;;;;;;6.72;6.13;;;;;;;;;;5134802;27;20429;-86
2022/11/30 01:31:08;;;;;;;6.63;6.13;;;;;;;;;;5134915;27;20851;-87
2022/11/30 01:33:35;;;;;;;7.20;6.50;;;;;;;;;;5137231;27;20365;-86
2022/11/30 01:36:05;;;;;;;7.32;6.82;;;;;;;;;;5135027;27;20375;-86
2022/11/30 01:38:35;;;;;;;7.70;7.10;;;;;;;;;;5134237;27;20474;-87
2022/11/30 01:41:02;;;;;;;6.80;6.30;;;;;;;;;;5115778;27;20790;-86
2022/11/30 01:43:44;;;;;;;7.47;6.95;;;;;;;;;;5134482;27;20457;-86
2022/11/30 01:46:29;;;;;;;7.10;6.60;;;;;;;;;;5115972;27;20383;-86
2022/11/30 01:49:17;;;;;;;7.10;6.60;;;;;;;;;;5134396;27;20401;-86
2022/11/30 01:51:47;;;;;;;6.28;5.82;;;;;;;;;;5133722;27;20387;-87
2022/11/30 01:54:14;;;;;;;6.20;5.80;;;;;;;;;;5134302;27;20393;-86
2022/11/30 01:56:42;;;;;;;6.10;5.60;;;;;;;;;;5132270;27;20448;-87
2022/11/30 01:59:09;;;;;;;5.65;5.25;;;;;;;;;;5133952;27;20409;-87
2022/11/30 02:01:35;;;;;;;5.88;5.47;;;;;;;;;;5134310;27;20922;-86
2022/11/30 02:04:19;;;;;;;4.93;4.63;;;;;;;;;;5125147;27;20375;-86
2022/11/30 02:06:46;;;;;;;4.90;4.50;;;;;;;;;;5134112;27;20367;-87
2022/11/30 02:09:12;;;;;;;5.40;5.00;;;;;;;;;;5133794;27;20374;-87
2022/11/30 02:11:38;;;;;;;5.38;4.90;;;;;;;;;;5134241;27;20381;-86
2022/11/30 02:14:04;;;;;;;5.53;5.13;;;;;;;;;;5134197;27;20378;-86
2022/11/30 02:16:42;;;;;;;5.50;5.10;;;;;;;;;;5115458;27;20397;-87
2022/11/30 02:19:27;;;;;;;5.72;5.32;;;;;;;;;;5133729;27;20410;-86
2022/11/30 02:22:02;;;;;;;5.25;4.85;;;;;;;;;;5136029;27;20402;-86
2022/11/30 02:24:47;;;;;;;5.37;4.97;;;;;;;;;;5116643;27;20470;-86
2022/11/30 02:27:29;;;;;;;4.78;4.47;;;;;;;;;;5136314;27;20466;-86
2022/11/30 02:30:07;;;;;;;4.00;3.80;;;;;;;;;;5133714;27;20390;-87
2022/11/30 02:32:41;;;;;;;3.50;3.30;;;;;;;;;;5133780;27;20375;-85
2022/11/30 02:35:08;;;;;;;3.78;3.55;;;;;;;;;;5133897;27;20460;-87
2022/11/30 02:37:35;;;;;;;4.07;3.78;;;;;;;;;;5133616;27;20387;-86
2022/11/30 02:40:01;;;;;;;3.88;3.58;;;;;;;;;;5133695;27;20410;-87
2022/11/30 02:42:27;;;;;;;3.60;3.30;;;;;;;;;;5132985;27;20454;-86
2022/11/30 02:44:53;;;;;;;3.25;3.05;;;;;;;;;;5133815;27;20382;-86
2022/11/30 02:47:22;;;;;;;3.45;3.20;;;;;;;;;;5133719;27;20367;-86
2022/11/30 02:49:50;;;;;;;3.53;3.33;;;;;;;;;;5133798;27;20375;-86
2022/11/30 02:52:18;;;;;;;3.47;3.28;;;;;;;;;;5133843;27;20374;-86
2022/11/30 02:54:44;;;;;;;3.60;3.40;;;;;;;;;;5123035;27;20376;-86
2022/11/30 02:57:11;;;;;;;3.40;3.20;;;;;;;;;;5131416;27;20469;-86
2022/11/30 02:59:37;;;;;;;3.67;3.47;;;;;;;;;;5133649;27;20793;-86
2022/11/30 03:02:03;;;;;;;3.65;3.45;;;;;;;;;;5133404;27;20836;-86
2022/11/30 03:04:29;;;;;;;3.40;3.20;;;;;;;;;;5121333;27;20406;-87
2022/11/30 03:06:55;;;;;;;3.47;3.28;;;;;;;;;;5129247;27;20383;-86
2022/11/30 03:09:21;;;;;;;3.67;3.47;;;;;;;;;;5119606;27;20424;-86
2022/11/30 03:11:47;;;;;;;3.50;3.30;;;;;;;;;;5131190;27;20852;-86
2022/11/30 03:14:13;;;;;;;3.80;3.50;;;;;;;;;;5132855;27;20382;-86
2022/11/30 03:16:39;;;;;;;3.55;3.35;;;;;;;;;;5114867;28;20397;-86
2022/11/30 03:19:05;;;;;;;3.70;3.42;;;;;;;;;;5132601;27;20399;-87
2022/11/30 03:21:31;;;;;;;4.30;4.00;;;;;;;;;;5133106;27;20887;-87
2022/11/30 03:23:57;;;;;;;4.65;4.35;;;;;;;;;;5133465;27;20465;-86
2022/11/30 03:26:23;;;;;;;4.80;4.40;;;;;;;;;;5132818;27;20432;-86
2022/11/30 03:28:49;;;;;;;4.90;4.50;;;;;;;;;;5132995;27;20375;-87
2022/11/30 03:31:15;;;;;;;4.93;4.53;;;;;;;;;;5132811;27;20800;-86
2022/11/30 03:33:41;;;;;;;4.40;4.10;;;;;;;;;;5133200;27;20444;-86
2022/11/30 03:36:09;;;;;;;4.18;3.88;;;;;;;;;;5133504;27;20390;-86
2022/11/30 03:38:35;;;;;;;4.20;3.90;;;;;;;;;;5139505;27;20438;-86
2022/11/30 03:41:12;;;;;;;3.83;3.53;;;;;;;;;;5133860;27;20500;-87
2022/11/30 03:43:39;;;;;;;4.00;3.70;;;;;;;;;;5136984;27;20459;-87
2022/11/30 03:46:05;;;;;;;4.20;3.90;;;;;;;;;;5118457;27;20387;-86
2022/11/30 03:48:31;;;;;;;4.20;3.90;;;;;;;;;;5136992;27;20427;-87
2022/11/30 03:50:57;;;;;;;4.10;3.80;;;;;;;;;;5137070;27;20375;-85
2022/11/30 03:53:24;;;;;;;3.50;3.30;;;;;;;;;;5133583;27;20372;-86
2022/11/30 03:55:57;;;;;;;3.88;3.40;;;;;;;;;;5136533;27;20393;-87
2022/11/30 03:58:23;;;;;;;3.90;3.60;;;;;;;;;;5118449;27;20406;-86
2022/11/30 04:00:49;;;;;;;3.92;3.63;;;;;;;;;;5136050;27;20410;-86
2022/11/30 04:03:15;;;;;;;3.63;3.40;;;;;;;;;;5111437;28;20861;-86
2022/11/30 04:05:42;;;;;;;3.58;3.38;;;;;;;;;;5134262;27;20778;-86
2022/11/30 04:08:08;;;;;;;3.53;3.33;;;;;;;;;;5136634;27;20379;-87
2022/11/30 04:10:34;;;;;;;3.70;3.50;;;;;;;;;;5136505;27;20840;-86
2022/11/30 04:13:00;;;;;;;4.03;3.78;;;;;;;;;;5136255;27;20410;-86
2022/11/30 04:15:26;;;;;;;4.13;3.83;;;;;;;;;;5136100;27;20393;-86
2022/11/30 04:17:52;;;;;;;3.90;3.65;;;;;;;;;;5132506;27;20382;-86
2022/11/30 04:20:18;;;;;;;4.10;3.80;;;;;;;;;;5136498;27;20425;-86
2022/11/30 04:22:44;;;;;;;3.88;3.60;;;;;;;;;;5135669;27;20474;-86
2022/11/30 04:25:10;;;;;;;4.10;3.80;;;;;;;;;;5136044;27;20402;-86
2022/11/30 04:27:36;;;;;;;3.90;3.60;;;;;;;;;;5136016;27;20399;-86
2022/11/30 04:30:03;;;;;;;3.90;3.60;;;;;;;;;;5137876;27;20899;-86
2022/11/30 04:32:29;;;;;;;3.80;3.50;;;;;;;;;;5135908;27;20379;-86
2022/11/30 04:34:55;;;;;;;3.50;3.30;;;;;;;;;;5135978;27;20843;-87
2022/11/30 04:37:21;;;;;;;3.90;3.60;;;;;;;;;;5136011;27;20470;-86
2022/11/30 04:39:47;;;;;;;3.97;3.67;;;;;;;;;;5135583;27;20425;-86
2022/11/30 04:42:13;;;;;;;3.83;3.53;;;;;;;;;;5133136;27;20386;-86
2022/11/30 04:44:39;;;;;;;3.90;3.60;;;;;;;;;;5135883;27;20381;-86
2022/11/30 04:47:05;;;;;;;4.07;3.78;;;;;;;;;;5135607;27;20716;-86
2022/11/30 04:49:31;;;;;;;4.28;3.97;;;;;;;;;;5121855;27;20374;-86
2022/11/30 04:51:57;;;;;;;4.25;3.95;;;;;;;;;;5131946;27;20449;-86
2022/11/30 04:54:22;;;;;;;4.10;3.80;;;;;;;;;;5125673;27;20383;-86
2022/11/30 04:56:48;;;;;;;4.75;4.10;;;;;;;;;;5124061;27;20478;-86
2022/11/30 04:59:14;;;;;;;4.60;4.20;;;;;;;;;;5135012;27;20775;-86
2022/11/30 05:01:40;;;;;;;4.77;4.47;;;;;;;;;;5130660;27;20428;-86
2022/11/30 05:04:06;;;;;;;4.82;4.53;;;;;;;;;;5135533;27;20451;-86
2022/11/30 05:06:32;;;;;;;4.70;4.40;;;;;;;;;;5135698;27;20410;-86
2022/11/30 05:08:58;;;;;;;4.70;4.38;;;;;;;;;;5134996;27;20390;-86
2022/11/30 05:11:24;;;;;;;5.10;4.75;;;;;;;;;;5116677;27;20811;-86
2022/11/30 05:13:50;;;;;;;5.23;4.80;;;;;;;;;;5135353;27;20450;-86
2022/11/30 05:16:16;;;;;;;5.45;5.05;;;;;;;;;;5135398;27;20395;-86
2022/11/30 05:18:42;;;;;;;5.53;5.03;;;;;;;;;;5135081;27;20371;-86
2022/11/30 05:21:08;;;;;;;5.82;5.43;;;;;;;;;;5135199;27;20379;-87
2022/11/30 05:23:34;;;;;;;5.55;5.15;;;;;;;;;;5134765;27;20375;-86
2022/11/30 05:26:01;;;;;;;5.60;5.20;;;;;;;;;;5134836;27;20374;-86
2022/11/30 05:28:27;;;;;;;5.32;4.93;;;;;;;;;;5134825;27;20417;-86
2022/11/30 05:30:53;;;;;;;5.10;4.80;;;;;;;;;;5134694;27;20377;-87
2022/11/30 05:33:19;;;;;;;6.38;5.88;;;;;;;;;;5134924;27;20440;-87
2022/11/30 05:35:45;;;;;;;6.00;5.40;;;;;;;;;;5116226;27;20414;-86
2022/11/30 05:38:11;;;;;;;5.85;5.45;;;;;;;;;;5133407;27;20378;-86
2022/11/30 05:40:37;;;;;;;5.63;5.22;;;;;;;;;;5112188;27;20421;-86
2022/11/30 05:43:04;;;;;;;5.80;5.30;;;;;;;;;;5126639;27;20371;-86
2022/11/30 05:45:30;;;;;;;6.10;5.60;;;;;;;;;;5123270;27;20446;-87
2022/11/30 05:47:56;;;;;;;5.78;5.38;;;;;;;;;;5129317;27;20370;-86
2022/11/30 05:50:22;;;;;;;6.35;5.85;;;;;;;;;;5136230;27;20701;-86
2022/11/30 05:52:48;;;;;;;6.63;6.13;;;;;;;;;;5137208;27;20375;-85
2022/11/30 05:55:14;;;;;;;6.40;5.90;;;;;;;;;;5134577;27;20420;-86
2022/11/30 05:57:40;;;;;;;5.60;5.20;;;;;;;;;;5134163;27;20375;-88
2022/11/30 06:00:10;;;;;;;6.18;5.63;;;;;;;;;;5134256;27;20441;-87
2022/11/30 06:02:36;;;;;;;6.30;5.85;;;;;;;;;;5115563;27;20378;-87
2022/11/30 06:05:02;;;;;;;6.25;5.75;;;;;;;;;;5134288;27;20415;-86
2022/11/30 06:07:28;;;;;;;8.80;8.10;;;;;;;;;;5134207;27;20375;-87
2022/11/30 06:09:54;;;;;;;8.75;8.05;;;;;;;;;;5134376;27;20377;-86
2022/11/30 06:12:20;;;;;;;8.23;7.53;;;;;;;;;;5133930;27;20385;-87
2022/11/30 06:14:46;;;;;;;9.48;8.68;;;;;;;;;;5134459;27;20383;-86
2022/11/30 06:17:12;;;;;;;11.38;10.48;;;;;;;;;;5132522;27;20378;-87
2022/11/30 06:19:38;;;;;;;10.97;9.97;;;;;;;;;;5129015;27;20426;-86
2022/11/30 06:22:04;;;;;;;12.05;11.05;;;;;;;;;;5123997;27;20800;-87
2022/11/30 06:24:30;;;;;;;12.27;11.20;;;;;;;;;;5101357;27;20461;-86
2022/11/30 06:26:56;;;;;;;12.50;11.40;;;;;;;;;;5119046;27;20373;-85
2022/11/30 06:29:22;;;;;;;12.55;11.45;;;;;;;;;;5100305;27;20719;-88
2022/11/30 06:31:48;;;;;;;12.98;11.77;;;;;;;;;;5125693;27;20381;-88
2022/11/30 06:34:14;;;;;;;12.85;11.85;;;;;;;;;;5133694;27;20379;-87
2022/11/30 06:36:40;;;;;;;13.88;12.57;;;;;;;;;;5114696;27;20378;-87
2022/11/30 06:39:07;;;;;;;16.47;14.87;;;;;;;;;;5136094;27;20408;-88
2022/11/30 06:41:33;;;;;;;16.92;15.32;;;;;;;;;;5133442;27;20382;-88
2022/11/30 06:43:59;;;;;;;19.17;17.15;;;;;;;;;;5113412;27;20393;-89
2022/11/30 06:46:26;;;;;;;19.03;17.13;;;;;;;;;;5128249;27;20379;-88
2022/11/30 06:48:52;;;;;;;21.30;18.70;;;;;;;;;;5133690;27;20369;-88
2022/11/30 06:51:18;;;;;;;23.40;19.77;;;;;;;;;;5133694;27;20382;-89
2022/11/30 06:53:44;;;;;;;21.70;19.00;;;;;;;;;;5133611;27;20465;-88
2022/11/30 06:56:11;;;;;;;24.80;19.73;;;;;;;;;;5128944;27;20382;-88
2022/11/30 06:58:38;;;;;;;24.27;20.63;;;;;;;;;;5133338;27;20411;-88
2022/11/30 07:01:05;;;;;;;25.10;21.13;;;;;;;;;;5133463;27;20393;-87
2022/11/30 07:03:31;;;;;;;27.02;21.15;;;;;;;;;;5133000;27;20840;-88
2022/11/30 07:05:57;;;;;;;21.77;19.40;;;;;;;;;;5133392;27;20420;-85
2022/11/30 07:08:23;;;;;;;21.17;18.83;;;;;;;;;;5122496;27;20388;-84
2022/11/30 07:10:49;;;;;;;25.73;20.07;;;;;;;;;;5115188;28;20863;-86
2022/11/30 07:13:17;;;;;;;20.85;18.05;;;;;;;;;;5137713;27;20473;-85
2022/11/30 07:15:43;;;;;;;21.67;18.50;;;;;;;;;;5137768;27;20457;-85
2022/11/30 07:18:10;;;;;;;19.98;17.88;;;;;;;;;;5137690;27;20843;-85
2022/11/30 07:20:36;;;;;;;19.23;16.77;;;;;;;;;;5137060;27;20402;-84
2022/11/30 07:26:06;;;;;;;18.95;16.65;;;;;;;;;;5136961;27;20827;-84
2022/11/30 07:28:36;;;;;;;19.40;17.20;;;;;;;;;;5137128;27;20382;-84
2022/11/30 07:31:02;;;;;;;19.25;17.25;;;;;;;;;;5119608;27;20829;-85
2022/11/30 07:33:28;;;;;;;19.20;16.53;;;;;;;;;;5135547;27;20962;-85
2022/11/30 07:35:54;;;;;;;18.98;16.42;;;;;;;;;;5124535;27;20411;-85
2022/11/30 07:38:20;;;;;;;17.63;15.70;;;;;;;;;;5128455;27;20409;-84
2022/11/30 07:40:46;;;;;;;17.15;15.35;;;;;;;;;;5136644;27;20417;-84
2022/11/30 07:43:12;;;;;;;19.08;17.08;;;;;;;;;;5136778;27;20370;-84
2022/11/30 07:45:38;;;;;;;17.33;15.52;;;;;;;;;;5132397;27;20442;-84
2022/11/30 07:48:04;;;;;;;17.42;15.63;;;;;;;;;;5117083;27;20480;-85
2022/11/30 07:50:31;;;;;;;18.10;16.20;;;;;;;;;;5114825;28;20388;-85
2022/11/30 07:52:58;;;;;;;17.17;15.48;;;;;;;;;;5133157;27;20382;-85
2022/11/30 07:55:23;;;;;;;16.60;14.93;;;;;;;;;;5136820;27;20719;-86
2022/11/30 07:57:49;;;;;;;17.20;15.50;;;;;;;;;;5136786;27;20458;-84
2022/11/30 08:00:16;;;;;;;17.23;15.43;;;;;;;;;;5136631;27;20421;-84
2022/11/30 08:02:41;;;;;;;16.02;14.40;;;;;;;;;;5136735;27;20375;-84
2022/11/30 08:05:10;;;;;;;15.88;14.35;;;;;;;;;;5136728;27;20431;-83
2022/11/30 08:07:36;;;;;;;16.30;14.70;;;;;;;;;;5136936;27;20371;-83
2022/11/30 08:10:03;;;;;;;16.70;15.00;;;;;;;;;;5136617;27;20387;-84
2022/11/30 08:12:28;;;;;;;16.03;14.53;;;;;;;;;;5136244;27;20863;-84
2022/11/30 08:14:54;;;;;;;16.52;14.93;;;;;;;;;;5136626;27;20382;-87
2022/11/30 08:17:20;;;;;;;15.65;14.15;;;;;;;;;;5136195;27;20918;-87
2022/11/30 08:19:46;;;;;;;16.25;14.63;;;;;;;;;;5136256;27;20402;-86
2022/11/30 08:22:12;;;;;;;16.35;14.60;;;;;;;;;;5136023;27;20861;-86
2022/11/30 08:24:38;;;;;;;15.13;13.60;;;;;;;;;;5136299;27;20525;-88
2022/11/30 08:27:04;;;;;;;15.00;13.60;;;;;;;;;;5132469;27;20379;-88
2022/11/30 08:29:30;;;;;;;15.07;13.57;;;;;;;;;;5130953;27;20866;-83
2022/11/30 08:31:56;;;;;;;14.63;13.23;;;;;;;;;;5104472;28;20415;-84
2022/11/30 08:34:22;;;;;;;15.32;13.73;;;;;;;;;;5118034;27;21363;-86
2022/11/30 08:36:48;;;;;;;23.60;21.15;;;;;;;;;;5118548;27;20388;-85
2022/11/30 08:39:14;;;;;;;14.15;12.85;;;;;;;;;;5122653;27;20410;-86
2022/11/30 08:41:40;;;;;;;14.07;12.68;;;;;;;;;;5137961;27;20877;-85
2022/11/30 08:44:06;;;;;;;13.55;12.35;;;;;;;;;;5116195;27;20384;-85
2022/11/30 08:46:32;;;;;;;13.88;12.57;;;;;;;;;;5123411;27;20379;-85
2022/11/30 08:48:58;;;;;;;15.35;13.85;;;;;;;;;;5123930;27;20377;-85
2022/11/30 08:51:24;;;;;;;15.90;13.38;;;;;;;;;;5126690;27;20433;-85
2022/11/30 08:53:50;;;;;;;15.73;14.10;;;;;;;;;;5128645;27;20892;-84
2022/11/30 08:56:18;;;;;;;15.52;13.73;;;;;;;;;;5110502;27;20394;-85
2022/11/30 08:58:44;;;;;;;17.97;15.27;;;;;;;;;;5135283;27;20375;-86
2022/11/30 09:01:12;;;;;;;17.80;15.63;;;;;;;;;;5135124;27;20909;-86
2022/11/30 09:03:38;;;;;;;15.80;14.13;;;;;;;;;;5135164;27;20902;-86
2022/11/30 09:06:09;;;;;;;16.13;14.48;;;;;;;;;;5117039;27;20728;-86
2022/11/30 09:08:35;;;;;;;15.90;14.30;;;;;;;;;;5135496;27;20498;-87
2022/11/30 09:11:08;;;;;;;16.25;14.55;;;;;;;;;;5135102;27;22161;-86
2022/11/30 09:13:34;;;;;;;17.38;14.95;;;;;;;;;;5122424;27;20436;-87
2022/11/30 09:16:00;;;;;;;15.88;13.93;;;;;;;;;;5135379;27;20378;-87
2022/11/30 09:18:26;;;;;;;15.25;13.45;;;;;;;;;;5135639;27;20386;-86
2022/11/30 09:20:53;;;;;;;13.80;12.40;;;;;;;;;;5137121;27;20474;-85
2022/11/30 09:23:19;;;;;;;12.55;11.27;;;;;;;;;;5135877;27;20403;-86
2022/11/30 09:25:45;;;;;;;10.82;9.73;;;;;;;;;;5135279;27;20391;-86
2022/11/30 09:28:11;;;;;;;9.00;8.20;;;;;;;;;;5135275;27;20381;-86
2022/11/30 09:30:37;;;;;;;8.38;7.63;;;;;;;;;;5134637;27;20386;-85
2022/11/30 09:33:03;;;;;;;9.18;8.38;;;;;;;;;;5130575;27;20481;-87
2022/11/30 09:35:29;;;;;;;7.00;6.40;;;;;;;;;;5129490;27;20465;-87
2022/11/30 09:37:55;;;;;;;7.70;7.05;;;;;;;;;;5126363;27;20713;-86
2022/11/30 09:40:22;;;;;;;6.30;5.70;;;;;;;;;;5136761;27;20467;-86
2022/11/30 09:43:04;;;;;;;6.28;5.68;;;;;;;;;;5133311;27;20390;-85
2022/11/30 09:45:32;;;;;;;6.55;5.95;;;;;;;;;;5134198;27;20908;-86
2022/11/30 09:48:07;;;;;;;6.03;5.53;;;;;;;;;;5130256;27;20383;-86
2022/11/30 09:50:37;;;;;;;7.10;6.47;;;;;;;;;;5133190;27;20382;-86
2022/11/30 09:53:10;;;;;;;5.55;5.10;;;;;;;;;;5133739;27;20458;-85
2022/11/30 09:55:38;;;;;;;5.45;5.05;;;;;;;;;;5133650;27;20383;-86
2022/11/30 09:58:05;;;;;;;5.65;5.25;;;;;;;;;;5134753;27;20863;-86
2022/11/30 10:00:31;;;;;;;5.10;4.70;;;;;;;;;;5134258;27;20398;-86
2022/11/30 10:02:58;;;;;;;4.97;4.57;;;;;;;;;;5134322;27;20430;-86
2022/11/30 10:05:26;;;;;;;5.10;4.70;;;;;;;;;;5134284;27;20386;-86
2022/11/30 10:08:02;;;;;;;5.22;4.75;;;;;;;;;;5115767;27;20875;-86
2022/11/30 10:10:37;;;;;;;4.70;4.30;;;;;;;;;;5134004;27;20413;-86
2022/11/30 10:13:22;;;;;;;5.00;4.60;;;;;;;;;;5134316;27;20443;-86
2022/11/30 10:15:56;;;;;;;5.78;4.82;;;;;;;;;;5134383;27;20402;-86
2022/11/30 10:18:34;;;;;;;4.85;4.45;;;;;;;;;;5138663;27;20386;-83
2022/11/30 10:21:07;;;;;;;5.55;5.05;;;;;;;;;;5134476;27;20461;-86
2022/11/30 10:23:44;;;;;;;5.50;5.10;;;;;;;;;;5133921;27;20457;-85
2022/11/30 10:26:23;;;;;;;5.00;4.60;;;;;;;;;;5135701;27;20508;-86
2022/11/30 10:28:51;;;;;;;5.38;4.90;;;;;;;;;;5134076;27;20528;-86
2022/11/30 10:31:18;;;;;;;6.07;5.57;;;;;;;;;;5134083;27;20422;-86
2022/11/30 10:33:48;;;;;;;26.13;17.65;;;;;;;;;;5134202;27;20394;-86
2022/11/30 10:36:33;;;;;;;13.35;10.25;;;;;;;;;;5133319;27;20443;-86
2022/11/30 10:39:02;;;;;;;10.82;8.95;;;;;;;;;;5128116;27;20444;-86
2022/11/30 10:41:30;;;;;;;9.27;8.48;;;;;;;;;;5134019;27;20473;-85
2022/11/30 10:43:56;;;;;;;9.88;8.82;;;;;;;;;;5135786;27;20379;-86
2022/11/30 10:46:32;;;;;;;30.75;17.60;;;;;;;;;;5129377;27;20397;-86
2022/11/30 10:49:02;;;;;;;10.20;8.80;;;;;;;;;;5133612;27;25098;-86
2022/11/30 10:51:28;;;;;;;13.83;10.70;;;;;;;;;;5133472;27;20378;-86
2022/11/30 10:53:55;;;;;;;127.03;45.95;;;;;;;;;;5133748;27;20386;-86
2022/11/30 10:56:21;;;;;;;57.67;26.07;;;;;;;;;;5130386;27;20845;-86
2022/11/30 10:58:56;;;;;;;23.75;14.27;;;;;;;;;;5133544;27;20461;-86
2022/11/30 11:01:30;;;;;;;98.00;36.55;;;;;;;;;;5133180;27;20382;-86
2022/11/30 11:04:08;;;;;;;62.10;27.75;;;;;;;;;;5133294;27;20391;-85
2022/11/30 11:06:34;;;;;;;7.47;6.77;;;;;;;;;;5133132;27;20432;-86
2022/11/30 11:09:20;;;;;;;13.75;12.45;;;;;;;;;;5133376;27;20363;-86
2022/11/30 11:11:52;;;;;;;9.48;8.68;;;;;;;;;;5114433;27;20386;-86
2022/11/30 11:14:20;;;;;;;9.20;8.40;;;;;;;;;;5133675;27;20378;-86
2022/11/30 11:16:54;;;;;;;10.02;9.02;;;;;;;;;;5132882;27;20383;-86
2022/11/30 11:19:32;;;;;;;9.57;8.77;;;;;;;;;;5133159;27;20875;-86
2022/11/30 11:21:58;;;;;;;24.60;20.75;;;;;;;;;;5133044;27;20383;-85
2022/11/30 11:24:27;;;;;;;12.30;11.05;;;;;;;;;;5114883;28;20387;-86
2022/11/30 11:26:54;;;;;;;19.13;17.00;;;;;;;;;;5133277;27;20379;-85
2022/11/30 11:29:30;;;;;;;14.65;13.13;;;;;;;;;;5133166;27;20382;-86
2022/11/30 11:32:06;;;;;;;16.35;14.68;;;;;;;;;;5133497;27;20374;-87
2022/11/30 11:34:33;;;;;;;16.42;14.73;;;;;;;;;;5133435;27;20370;-85
2022/11/30 11:37:05;;;;;;;17.67;15.82;;;;;;;;;;5126249;27;20932;-86
2022/11/30 11:39:31;;;;;;;18.25;16.00;;;;;;;;;;5131884;27;20453;-86
2022/11/30 11:41:58;;;;;;;16.95;15.15;;;;;;;;;;5135469;27;20428;-86
2022/11/30 11:44:26;;;;;;;21.15;17.10;;;;;;;;;;5132842;27;20375;-86
2022/11/30 11:46:57;;;;;;;43.47;26.15;;;;;;;;;;5133092;27;20418;-87
2022/11/30 11:49:25;;;;;;;106.20;44.58;;;;;;;;;;5129534;27;20417;-86
2022/11/30 11:52:01;;;;;;;63.17;27.95;;;;;;;;;;5132867;27;20381;-86
2022/11/30 11:54:30;;;;;;;42.03;31.48;;;;;;;;;;5132595;27;20443;-85
2022/11/30 11:56:57;;;;;;;19.48;15.98;;;;;;;;;;5133040;27;20420;-86
2022/11/30 11:59:37;;;;;;;32.95;21.27;;;;;;;;;;5136994;27;20482;-86
2022/11/30 12:02:13;;;;;;;19.15;13.85;;;;;;;;;;5136321;27;20409;-86
2022/11/30 12:05:00;;;;;;;14.38;12.00;;;;;;;;;;5136594;27;20414;-85
2022/11/30 12:07:32;;;;;;;14.45;11.98;;;;;;;;;;5136609;27;20440;-86
2022/11/30 12:10:13;;;;;;;12.75;11.45;;;;;;;;;;5136698;27;20434;-86
2022/11/30 12:12:39;;;;;;;12.85;11.50;;;;;;;;;;5136654;27;20429;-86
2022/11/30 12:15:10;;;;;;;13.60;12.00;;;;;;;;;;5138850;27;20728;-86
2022/11/30 12:17:57;;;;;;;13.13;11.57;;;;;;;;;;5137838;27;20503;-86
2022/11/30 12:20:27;;;;;;;13.95;12.40;;;;;;;;;;5117447;27;20430;-86
2022/11/30 12:23:17;;;;;;;17.65;13.05;;;;;;;;;;5136127;27;20501;-86
2022/11/30 12:25:49;;;;;;;15.13;13.07;;;;;;;;;;5136361;27;20418;-86
2022/11/30 12:28:27;;;;;;;14.27;12.30;;;;;;;;;;5136568;27;20382;-86
2022/11/30 12:31:10;;;;;;;16.67;13.35;;;;;;;;;;5136330;27;20433;-86
2022/11/30 12:33:56;;;;;;;17.55;13.38;;;;;;;;;;5117710;27;20476;-86
2022/11/30 12:36:42;;;;;;;17.67;14.25;;;;;;;;;;5116521;27;20528;-86
2022/11/30 12:39:29;;;;;;;15.77;13.80;;;;;;;;;;5131844;27;20875;-85
2022/11/30 12:42:00;;;;;;;48.13;31.63;;;;;;;;;;5135893;27;20386;-87
2022/11/30 12:44:48;;;;;;;40.17;26.73;;;;;;;;;;5137401;27;20380;-86
2022/11/30 12:47:25;;;;;;;49.93;30.27;;;;;;;;;;5137973;27;20388;-86
2022/11/30 12:49:51;;;;;;;44.70;27.33;;;;;;;;;;5137674;27;20860;-85
2022/11/30 12:52:24;;;;;;;55.33;31.92;;;;;;;;;;5145454;27;20385;-85
2022/11/30 12:54:53;;;;;;;47.78;27.27;;;;;;;;;;5142734;27;20390;-86
2022/11/30 12:57:27;;;;;;;46.83;26.13;;;;;;;;;;5118498;27;20491;-86
2022/11/30 13:00:02;;;;;;;46.35;27.02;;;;;;;;;;5135205;27;20903;-85
2022/11/30 13:02:28;;;;;;;25.80;17.60;;;;;;;;;;5136421;27;20383;-86
2022/11/30 13:04:58;;;;;;;34.47;21.45;;;;;;;;;;5136017;27;20371;-86
2022/11/30 13:07:24;;;;;;;47.05;26.80;;;;;;;;;;5117499;27;20390;-86
2022/11/30 13:09:57;;;;;;;46.00;26.65;;;;;;;;;;5134693;27;20375;-86
2022/11/30 13:12:36;;;;;;;24.50;18.02;;;;;;;;;;5135395;27;20446;-86
2022/11/30 13:15:09;;;;;;;17.63;15.80;;;;;;;;;;5135617;27;20528;-85
2022/11/30 13:17:37;;;;;;;15.27;13.77;;;;;;;;;;5135887;27;20394;-86
2022/11/30 13:20:06;;;;;;;17.95;15.82;;;;;;;;;;5135698;27;20462;-85
2022/11/30 13:22:41;;;;;;;17.17;15.32;;;;;;;;;;5135541;27;20418;-85
2022/11/30 13:25:16;;;;;;;16.83;14.38;;;;;;;;;;5135387;27;20414;-86
2022/11/30 13:28:06;;;;;;;16.17;14.38;;;;;;;;;;5135175;27;20892;-86
2022/11/30 13:30:32;;;;;;;17.67;15.20;;;;;;;;;;5121798;27;20393;-86
2022/11/30 13:33:18;;;;;;;15.98;14.38;;;;;;;;;;5137666;27;20378;-86
2022/11/30 13:35:52;;;;;;;19.05;15.82;;;;;;;;;;5135527;27;20502;-86
2022/11/30 13:38:19;;;;;;;22.58;18.00;;;;;;;;;;5126488;27;20442;-85
2022/11/30 13:40:59;;;;;;;39.22;23.00;;;;;;;;;;5135094;27;20402;-85
2022/11/30 13:43:27;;;;;;;30.25;21.55;;;;;;;;;;5134610;27;20502;-86
2022/11/30 13:46:04;;;;;;;13.57;12.27;;;;;;;;;;5134526;27;20385;-86
2022/11/30 13:48:32;;;;;;;18.70;13.20;;;;;;;;;;5134925;27;20445;-86
2022/11/30 13:50:58;;;;;;;13.50;12.07;;;;;;;;;;5134917;27;20396;-85
2022/11/30 13:53:24;;;;;;;11.43;10.32;;;;;;;;;;5134697;27;20918;-86
2022/11/30 13:56:01;;;;;;;11.23;10.23;;;;;;;;;;5134357;27;20859;-86
2022/11/30 13:58:28;;;;;;;11.55;10.43;;;;;;;;;;5131427;27;20375;-85
2022/11/30 14:01:30;;;;;;;11.07;10.05;;;;;;;;;;5134681;27;20891;-85
2022/11/30 14:04:12;;;;;;;11.20;10.10;;;;;;;;;;5031263;28;20440;-85
2022/11/30 14:06:40;;;;;;;11.52;10.43;;;;;;;;;;5124887;27;20914;-86
2022/11/30 14:09:27;;;;;;;10.48;9.55;;;;;;;;;;5134671;27;20431;-85
2022/11/30 14:11:53;;;;;;;9.07;8.27;;;;;;;;;;5132793;27;20446;-86
2022/11/30 14:14:37;;;;;;;8.77;7.88;;;;;;;;;;5134534;27;20427;-84
2022/11/30 14:17:03;;;;;;;9.00;8.20;;;;;;;;;;5133910;27;20474;-85
2022/11/30 14:19:29;;;;;;;8.63;7.93;;;;;;;;;;5133873;27;20406;-85
2022/11/30 14:21:56;;;;;;;7.80;7.10;;;;;;;;;;5133802;27;20443;-85
2022/11/30 14:24:23;;;;;;;7.07;6.47;;;;;;;;;;5134203;27;20381;-85
2022/11/30 14:26:50;;;;;;;7.68;6.97;;;;;;;;;;5134118;27;20378;-85
2022/11/30 14:29:18;;;;;;;7.82;7.22;;;;;;;;;;5133877;27;20429;-86
2022/11/30 14:31:47;;;;;;;7.20;6.50;;;;;;;;;;5115110;27;20406;-85
2022/11/30 14:34:28;;;;;;;7.40;6.70;;;;;;;;;;5133945;27;20506;-85
2022/11/30 14:37:11;;;;;;;7.45;6.75;;;;;;;;;;5127694;27;20442;-86
2022/11/30 14:39:41;;;;;;;7.20;6.50;;;;;;;;;;5101044;27;20462;-86
2022/11/30 14:42:20;;;;;;;11.50;6.78;;;;;;;;;;5133514;27;20422;-85
2022/11/30 14:44:46;;;;;;;18.73;8.10;;;;;;;;;;5133662;27;20445;-85